Terminal Aerodrome Forecast
Issued by NWS

Home | Current Version | Previous Version | Text Only | Print | Product List | Glossary On
Versions: 1 2 3 4 5 6 7 8 9 10 11 12 13
405
FTUS44 KSJT 281332 AAB
TAFSOA
TAF AMD
KSOA 281332Z 2814/2912 19011KT P6SM BKN011
     FM281500 24009KT P6SM SCT250
     FM282300 16010KT P6SM BKN250=

USA.gov is the U.S. government's official web portal to all federal, state and local government web resources and services.